Time;durP1;ratioP1;P1;durP2;ratioP2;P2;SDS_P1;SDS_P2;PMS_P1;PMS_P2;Temp;Humidity;BMP_temperature;BMP_pressure;BME280_temperature;BME280_humidity;BME280_pressure;Samples;Min_cycle;Max_cycle;Signal;HPM_P1;HPM_P2
2022/12/18 00:01:16;;;;;;;5.73;2.57;;;;;;;-143.84;71.51;45182.38;5127471;27;20543;-70
2022/12/18 00:03:43;;;;;;;2.87;2.67;;;;;;;-143.84;71.76;45169.03;5112275;28;20442;-70
2022/12/18 00:06:11;;;;;;;4.27;2.90;;;;;;;-143.84;71.90;45163.31;5112308;28;20427;-70
2022/12/18 00:08:39;;;;;;;2.90;2.70;;;;;;;-143.84;72.11;45161.41;5112170;28;20438;-70
2022/12/18 00:11:07;;;;;;;2.70;2.50;;;;;;;-143.84;72.73;45169.03;5112251;28;20884;-70
2022/12/18 00:13:34;;;;;;;3.60;3.10;;;;;;;-143.84;72.62;45150.00;5111289;28;20480;-70
2022/12/18 00:16:05;;;;;;;2.83;2.63;;;;;;;-143.84;72.46;45169.03;5112130;28;20496;-71
2022/12/18 00:18:32;;;;;;;3.70;3.27;;;;;;;-143.84;73.10;45201.41;5111979;28;20434;-70
2022/12/18 00:21:00;;;;;;;3.87;3.57;;;;;;;-143.84;73.30;45186.16;5111866;28;20445;-70
2022/12/18 00:23:28;;;;;;;5.47;3.60;;;;;;;-143.84;73.11;45195.69;5111812;28;20553;-70
2022/12/18 00:25:55;;;;;;;3.03;2.83;;;;;;;-143.84;72.90;45180.47;5111290;28;20439;-70
2022/12/18 00:28:22;;;;;;;3.40;2.97;;;;;;;-143.84;72.96;45174.75;5111354;28;20439;-70
2022/12/18 00:30:51;;;;;;;3.20;3.00;;;;;;;-143.84;73.08;45186.16;5111886;28;20432;-70
2022/12/18 00:33:19;;;;;;;14.43;2.97;;;;;;;-143.84;73.28;45203.31;5111785;28;20471;-70
2022/12/18 00:35:46;;;;;;;3.50;3.20;;;;;;;-143.84;72.76;45189.97;5121992;27;21012;-70
2022/12/18 00:38:14;;;;;;;4.03;2.93;;;;;;;-143.84;72.34;45197.59;5131874;27;20496;-70
2022/12/18 00:40:41;;;;;;;5.40;4.03;;;;;;;-143.84;72.60;45170.94;5132379;27;20554;-70
2022/12/18 00:43:07;;;;;;;3.87;3.47;;;;;;;-143.84;72.75;45165.22;5131958;27;21000;-70
2022/12/18 00:45:34;;;;;;;3.20;2.90;;;;;;;-143.84;72.95;45146.19;5132074;27;20448;-70
2022/12/18 00:48:01;;;;;;;7.83;4.10;;;;;;;-143.84;73.07;45193.78;5132259;27;20508;-70
2022/12/18 00:50:30;;;;;;;6.90;3.70;;;;;;;-143.84;72.83;45150.00;5131915;27;20448;-70
2022/12/18 00:52:57;;;;;;;10.40;2.77;;;;;;;-143.84;71.97;45167.13;5131843;27;20514;-70
2022/12/18 00:55:24;;;;;;;3.30;3.00;;;;;;;-143.84;72.17;45186.16;5131977;27;20502;-70
2022/12/18 00:57:53;;;;;;;3.10;2.80;;;;;;;-143.84;72.22;45157.59;5131996;27;20859;-70
2022/12/18 01:00:20;;;;;;;3.00;2.73;;;;;;;-143.84;71.56;45155.69;5131788;27;20470;-70
2022/12/18 01:02:47;;;;;;;4.77;2.90;;;;;;;-143.84;72.08;45144.28;5132012;27;20525;-70
2022/12/18 01:05:15;;;;;;;4.07;3.77;;;;;;;-143.84;72.22;45205.22;5131753;27;20449;-70
2022/12/18 01:07:44;;;;;;;3.67;3.20;;;;;;;-143.84;72.19;45169.03;5131754;27;20441;-70
2022/12/18 01:10:14;;;;;;;4.40;3.83;;;;;;;-143.84;72.34;45167.13;5131611;27;20457;-70
2022/12/18 01:12:41;;;;;;;3.50;3.20;;;;;;;-143.84;72.32;45180.47;5131287;27;20525;-70
2022/12/18 01:15:10;;;;;;;3.20;3.00;;;;;;;-143.84;72.11;45169.03;5131637;27;20999;-70
2022/12/18 01:17:38;;;;;;;2.70;2.50;;;;;;;-143.84;71.85;45150.00;5131717;27;20503;-70
2022/12/18 01:20:06;;;;;;;4.77;3.20;;;;;;;-143.84;72.22;45184.25;5131465;27;20445;-70
2022/12/18 01:22:33;;;;;;;4.43;3.17;;;;;;;-143.84;71.89;45174.75;5131440;27;21003;-70
2022/12/18 01:25:02;;;;;;;5.10;4.20;;;;;;;-143.84;72.37;45172.84;5131077;27;20447;-70
2022/12/18 01:27:29;;;;;;;2.80;2.60;;;;;;;-143.84;72.15;45199.50;5130737;27;21051;-70
2022/12/18 01:29:56;;;;;;;3.17;2.87;;;;;;;-143.84;71.94;45222.34;5130907;27;20438;-70
2022/12/18 01:32:23;;;;;;;3.67;3.37;;;;;;;-143.84;72.24;45167.13;5131378;27;20508;-70
2022/12/18 01:34:50;;;;;;;4.33;2.83;;;;;;;-143.84;72.62;45174.75;5131155;27;20435;-70
2022/12/18 01:37:17;;;;;;;3.43;3.20;;;;;;;-143.84;72.53;45146.19;5130570;27;20504;-70
2022/12/18 01:39:44;;;;;;;3.33;2.93;;;;;;;-143.84;72.70;45172.84;5130553;27;20501;-70
2022/12/18 01:42:15;;;;;;;3.60;3.30;;;;;;;-143.84;72.96;45178.56;5130659;27;20487;-70
2022/12/18 01:45:06;;;;;;;2.73;2.53;;;;;;;-143.84;72.86;45188.06;5130757;27;20533;-70
2022/12/18 01:47:37;;;;;;;2.70;2.50;;;;;;;-143.84;72.95;45144.28;5129882;27;20444;-70
2022/12/18 01:50:09;;;;;;;3.53;3.23;;;;;;;-143.84;72.79;45191.88;5130417;27;20445;-70
2022/12/18 01:52:38;;;;;;;4.23;2.60;;;;;;;-143.84;72.79;45169.03;5130741;27;20491;-71
2022/12/18 01:55:07;;;;;;;3.70;3.40;;;;;;;-143.84;73.08;45189.97;5130713;27;20940;-70
2022/12/18 01:57:36;;;;;;;3.70;3.20;;;;;;;-143.84;72.87;45176.66;5130645;27;20442;-70
2022/12/18 02:00:07;;;;;;;3.33;3.03;;;;;;;-143.84;73.02;45148.09;5130609;27;20445;-70
2022/12/18 02:02:34;;;;;;;3.53;2.93;;;;;;;-143.84;72.80;45186.16;5130703;27;20438;-70
2022/12/18 02:05:03;;;;;;;3.53;3.23;;;;;;;-143.84;72.73;45161.41;5130558;27;20450;-70
2022/12/18 02:07:42;;;;;;;2.80;2.60;;;;;;;-143.84;72.74;45195.69;5130579;27;20442;-70
2022/12/18 02:10:18;;;;;;;3.10;2.90;;;;;;;-143.84;72.65;45184.25;5130392;27;20499;-70
2022/12/18 02:12:54;;;;;;;3.30;3.10;;;;;;;-143.84;72.26;45193.78;5130151;27;20476;-70
2022/12/18 02:15:29;;;;;;;3.50;3.20;;;;;;;-143.84;71.82;45189.97;5130360;27;20459;-70
2022/12/18 02:18:04;;;;;;;3.00;2.70;;;;;;;-143.84;71.83;45163.31;5130930;27;20439;-70
2022/12/18 02:20:38;;;;;;;3.00;2.80;;;;;;;-143.84;71.52;45210.94;5130348;27;20438;-70
2022/12/18 02:23:21;;;;;;;5.10;2.93;;;;;;;-143.84;71.64;45186.16;5130581;27;20439;-70
2022/12/18 02:26:19;;;;;;;3.00;2.80;;;;;;;-143.84;71.96;45174.75;5130077;27;20433;-70
2022/12/18 02:28:50;;;;;;;3.30;3.00;;;;;;;-143.84;71.75;45169.03;5130223;27;20951;-71
2022/12/18 02:31:22;;;;;;;3.17;2.90;;;;;;;-143.84;71.76;45195.69;5123974;27;20451;-70
2022/12/18 02:33:51;;;;;;;4.20;3.40;;;;;;;-143.84;71.75;45169.03;5109378;28;20476;-70
2022/12/18 02:36:21;;;;;;;3.93;2.20;;;;;;;-143.84;71.48;45188.06;5109931;28;20503;-70
2022/12/18 02:38:49;;;;;;;3.30;3.10;;;;;;;-143.84;71.18;45193.78;5109155;28;20442;-70
2022/12/18 02:41:19;;;;;;;8.90;2.30;;;;;;;-143.84;70.66;45170.94;5109840;28;20457;-70
2022/12/18 02:43:54;;;;;;;2.77;2.57;;;;;;;-143.84;70.77;45193.78;5109805;28;20434;-70
2022/12/18 02:46:32;;;;;;;3.13;2.83;;;;;;;-143.84;70.60;45169.03;5109358;28;20489;-70
2022/12/18 02:49:07;;;;;;;3.40;3.20;;;;;;;-143.84;70.45;45174.75;5109391;28;20954;-70
2022/12/18 02:51:42;;;;;;;4.50;2.67;;;;;;;-143.84;70.27;45201.41;5109531;28;20423;-70
2022/12/18 02:54:17;;;;;;;2.77;2.57;;;;;;;-143.84;70.29;45155.69;5114694;28;20891;-70
2022/12/18 02:56:53;;;;;;;3.17;2.97;;;;;;;-143.84;70.18;45176.66;5129874;28;20437;-70
2022/12/18 02:59:27;;;;;;;2.30;2.20;;;;;;;-143.84;70.07;45188.06;5129789;28;21022;-70
2022/12/18 03:01:59;;;;;;;2.80;2.60;;;;;;;-143.84;70.25;45189.97;5129724;28;20451;-70
2022/12/18 03:04:30;;;;;;;7.03;2.60;;;;;;;-143.84;70.12;45163.31;5129700;28;20449;-70
2022/12/18 03:07:00;;;;;;;2.50;2.30;;;;;;;-143.84;70.82;45205.22;5129965;28;20470;-70
2022/12/18 03:09:33;;;;;;;2.80;2.60;;;;;;;-143.84;71.11;45188.06;5129720;28;20440;-70
2022/12/18 03:12:25;;;;;;;4.30;2.70;;;;;;;-143.84;71.80;45186.16;5129474;28;20478;-70
2022/12/18 03:14:59;;;;;;;2.40;2.30;;;;;;;-143.84;71.45;45174.75;5129534;28;21056;-70
2022/12/18 03:17:31;;;;;;;3.67;3.37;;;;;;;-143.84;71.71;45151.91;5129773;28;20444;-70
2022/12/18 03:20:03;;;;;;;2.90;2.70;;;;;;;-143.84;72.19;45178.56;5129671;28;20445;-70
2022/12/18 03:22:33;;;;;;;2.43;2.33;;;;;;;-143.84;71.74;45174.75;5129786;28;20808;-70
2022/12/18 03:25:03;;;;;;;2.57;2.37;;;;;;;-143.84;71.78;45201.41;5129507;28;20448;-70
2022/12/18 03:27:34;;;;;;;3.10;2.80;;;;;;;-143.84;71.51;45201.41;5129732;28;20492;-70
2022/12/18 03:30:07;;;;;;;3.07;2.87;;;;;;;-143.84;71.06;45207.13;5129427;28;20583;-70
2022/12/18 03:32:41;;;;;;;2.67;2.53;;;;;;;-143.84;71.11;45195.69;5129778;28;20436;-70
2022/12/18 03:35:12;;;;;;;5.00;3.97;;;;;;;-143.84;71.10;45201.41;5128854;28;21047;-70
2022/12/18 03:37:40;;;;;;;3.00;2.80;;;;;;;-143.84;70.89;45189.97;5129482;28;20985;-70
2022/12/18 03:40:08;;;;;;;4.00;3.67;;;;;;;-143.84;71.04;45218.53;5129506;28;20504;-70
2022/12/18 03:42:45;;;;;;;3.03;2.80;;;;;;;-143.84;70.86;45186.16;5129365;28;20469;-70
2022/12/18 03:45:20;;;;;;;4.63;4.23;;;;;;;-143.84;70.89;45197.59;5129309;28;20481;-70
2022/12/18 03:47:58;;;;;;;3.13;2.93;;;;;;;-143.84;71.53;45191.88;5129361;28;20439;-70
2022/12/18 03:50:33;;;;;;;3.20;3.00;;;;;;;-143.84;71.28;45193.78;5129460;28;20436;-70
2022/12/18 03:53:10;;;;;;;3.50;3.30;;;;;;;-143.84;71.52;45167.13;5129226;28;20443;-70
2022/12/18 03:55:37;;;;;;;6.63;5.93;;;;;;;-143.84;71.14;45188.06;5129136;28;20497;-70
2022/12/18 03:58:08;;;;;;;5.87;5.27;;;;;;;-143.84;71.62;45186.16;5129516;28;20434;-70
2022/12/18 04:00:36;;;;;;;3.23;3.03;;;;;;;-143.84;70.68;45191.88;5129355;27;20440;-70
2022/12/18 04:03:05;;;;;;;4.00;3.60;;;;;;;-143.84;70.65;45159.50;5132904;27;20443;-70
2022/12/18 04:05:35;;;;;;;4.30;3.17;;;;;;;-143.84;70.44;45201.41;5132919;27;20440;-70
2022/12/18 04:08:03;;;;;;;4.30;3.93;;;;;;;-143.84;70.75;45197.59;5133118;27;20439;-70
2022/12/18 04:10:31;;;;;;;3.90;3.60;;;;;;;-143.84;70.00;45174.75;5130586;27;20444;-70
2022/12/18 04:12:59;;;;;;;4.30;3.90;;;;;;;-143.84;70.29;45212.84;5132058;27;20485;-70
2022/12/18 04:15:28;;;;;;;6.73;3.57;;;;;;;-143.84;70.27;45188.06;5132720;27;20432;-70
2022/12/18 04:17:55;;;;;;;4.47;3.87;;;;;;;-143.84;70.23;45195.69;5132728;27;20423;-70
2022/12/18 04:20:22;;;;;;;5.20;4.30;;;;;;;-143.84;69.66;45193.78;5132284;27;20441;-70
2022/12/18 04:22:49;;;;;;;4.60;4.17;;;;;;;-143.84;69.37;45216.63;5132758;27;20946;-70
2022/12/18 04:25:16;;;;;;;5.67;5.07;;;;;;;-143.84;68.86;45214.72;5131928;27;20469;-70
2022/12/18 04:27:43;;;;;;;4.37;4.07;;;;;;;-143.84;68.66;45205.22;5132650;27;20490;-70
2022/12/18 04:30:11;;;;;;;4.93;4.43;;;;;;;-143.84;69.09;45189.97;5132394;27;20436;-70
2022/12/18 04:32:39;;;;;;;5.10;4.60;;;;;;;-143.84;69.04;45172.84;5132598;27;20431;-70
2022/12/18 04:35:10;;;;;;;4.50;4.10;;;;;;;-143.84;68.56;45207.13;5132351;27;20524;-70
2022/12/18 04:37:37;;;;;;;4.40;4.00;;;;;;;-143.84;69.08;45186.16;5131855;27;20499;-70
2022/12/18 04:40:05;;;;;;;5.00;4.60;;;;;;;-143.84;69.35;45184.25;5131584;27;20428;-70
2022/12/18 04:42:32;;;;;;;7.90;4.50;;;;;;;-143.84;69.22;45214.72;5131991;27;20447;-70
2022/12/18 04:44:59;;;;;;;6.17;5.57;;;;;;;-143.84;68.91;45212.84;5131784;27;20453;-70
2022/12/18 04:47:27;;;;;;;6.27;5.47;;;;;;;-143.84;68.61;45216.63;5131438;27;20431;-70
2022/12/18 04:49:55;;;;;;;7.50;5.07;;;;;;;-143.84;68.24;45193.78;5131460;27;20495;-70
2022/12/18 04:52:22;;;;;;;11.50;5.50;;;;;;;-143.84;68.46;45184.25;5131579;27;20432;-70
2022/12/18 04:54:49;;;;;;;8.20;6.63;;;;;;;-143.84;68.25;45199.50;5131382;27;20478;-70
2022/12/18 04:57:18;;;;;;;7.20;6.40;;;;;;;-143.84;67.13;45210.94;5132025;27;20442;-70
2022/12/18 04:59:45;;;;;;;8.53;6.50;;;;;;;-143.84;68.70;45222.34;5131631;27;20534;-72
2022/12/18 05:02:12;;;;;;;8.77;6.57;;;;;;;-143.84;67.75;45197.59;5131883;27;20439;-70
2022/12/18 05:04:40;;;;;;;6.90;6.20;;;;;;;-143.84;67.73;45197.59;5131644;27;20454;-71
2022/12/18 05:07:08;;;;;;;9.20;5.83;;;;;;;-143.84;68.19;45169.03;5132125;27;20434;-70
2022/12/18 05:09:35;;;;;;;9.83;6.50;;;;;;;-143.84;68.69;45205.22;5131330;27;21008;-70
2022/12/18 05:12:03;;;;;;;9.83;6.07;;;;;;;-143.84;70.09;45201.41;5131434;27;20542;-70
2022/12/18 05:14:30;;;;;;;8.07;6.80;;;;;;;-143.84;71.53;45197.59;5131217;27;20476;-70
2022/12/18 05:16:57;;;;;;;9.40;7.20;;;;;;;-143.84;72.03;45191.88;5131209;27;20441;-70
2022/12/18 05:19:24;;;;;;;8.60;7.30;;;;;;;-143.84;72.50;45207.13;5131398;27;20430;-71
2022/12/18 05:21:51;;;;;;;10.60;8.10;;;;;;;-143.84;72.36;45195.69;5131529;27;20445;-70
2022/12/18 05:24:20;;;;;;;10.20;8.00;;;;;;;-143.84;72.58;45197.59;5130848;27;20434;-70
2022/12/18 05:26:47;;;;;;;11.00;7.97;;;;;;;-143.84;72.60;45180.47;5131505;27;20429;-70
2022/12/18 05:29:14;;;;;;;10.37;8.47;;;;;;;-143.84;71.88;45210.94;5131157;27;20950;-71
2022/12/18 05:31:41;;;;;;;14.60;10.63;;;;;;;-143.84;71.74;45199.50;5131432;27;20426;-70
2022/12/18 05:34:08;;;;;;;13.47;10.03;;;;;;;-143.84;71.71;45188.06;5130930;27;20472;-71
2022/12/18 05:36:35;;;;;;;14.07;10.03;;;;;;;-143.84;71.61;45205.22;5131447;27;20433;-70
2022/12/18 05:39:03;;;;;;;15.50;11.00;;;;;;;-143.84;71.28;45201.41;5130526;27;20438;-70
2022/12/18 05:41:31;;;;;;;16.40;10.60;;;;;;;-143.84;70.69;45197.59;5130907;27;20433;-70
2022/12/18 05:43:59;;;;;;;18.17;11.47;;;;;;;-143.84;70.86;45207.13;5131030;27;20895;-70
2022/12/18 05:46:27;;;;;;;15.67;10.90;;;;;;;-143.84;70.72;45212.84;5130808;27;20510;-70
2022/12/18 05:48:54;;;;;;;15.93;11.70;;;;;;;-143.84;70.43;45197.59;5130740;27;20431;-70
2022/12/18 05:51:23;;;;;;;17.57;11.50;;;;;;;-143.84;70.86;45237.59;5130582;27;20490;-70
2022/12/18 05:53:50;;;;;;;16.30;10.70;;;;;;;-143.84;71.15;45180.47;5129930;27;20478;-70
2022/12/18 05:56:19;;;;;;;17.60;12.23;;;;;;;-143.84;71.69;45203.31;5130380;27;20435;-70
2022/12/18 05:58:48;;;;;;;17.83;11.70;;;;;;;-143.84;71.74;45226.16;5130796;27;20847;-70
2022/12/18 06:01:18;;;;;;;16.87;11.40;;;;;;;-143.84;71.80;45209.03;5130786;27;20465;-70
2022/12/18 06:03:45;;;;;;;21.03;13.27;;;;;;;-143.84;72.04;45195.69;5130511;27;20441;-71
2022/12/18 06:06:18;;;;;;;19.70;12.97;;;;;;;-143.84;71.90;45216.63;5130384;27;20949;-70
2022/12/18 06:08:45;;;;;;;23.40;14.27;;;;;;;-143.84;71.79;45203.31;5129875;27;20443;-70
2022/12/18 06:11:13;;;;;;;18.73;13.57;;;;;;;-143.84;72.05;45195.69;5130032;27;20437;-70
2022/12/18 06:13:40;;;;;;;20.90;14.73;;;;;;;-143.84;71.22;45207.13;5130179;27;21071;-70
2022/12/18 06:16:10;;;;;;;24.10;14.17;;;;;;;-143.84;72.03;45228.06;5130407;27;20954;-70
2022/12/18 06:18:37;;;;;;;23.53;15.00;;;;;;;-143.84;71.97;45199.50;5130269;27;20452;-70
2022/12/18 06:21:04;;;;;;;25.90;15.50;;;;;;;-143.84;72.02;45218.53;5130310;27;20941;-72
2022/12/18 06:23:31;;;;;;;22.80;14.53;;;;;;;-143.84;72.15;45205.22;5129854;27;20457;-71
2022/12/18 06:25:59;;;;;;;23.37;15.20;;;;;;;-143.84;72.42;45226.16;5129999;27;20496;-70
2022/12/18 06:28:26;;;;;;;22.60;14.30;;;;;;;-143.84;73.05;45197.59;5130158;27;20436;-70
2022/12/18 06:30:53;;;;;;;27.73;15.10;;;;;;;-143.84;73.06;45224.25;5130324;27;20483;-71
2022/12/18 06:33:21;;;;;;;23.50;15.60;;;;;;;-143.84;73.59;45209.03;5130341;27;20439;-70
2022/12/18 06:35:48;;;;;;;28.90;15.40;;;;;;;-143.84;73.70;45226.16;5129748;27;20471;-71
2022/12/18 06:38:15;;;;;;;23.20;15.70;;;;;;;-143.84;73.45;45220.44;5129600;27;20467;-70
2022/12/18 06:40:43;;;;;;;26.50;16.93;;;;;;;-143.84;74.02;45233.78;5129927;27;20762;-70
2022/12/18 06:43:10;;;;;;;26.40;15.90;;;;;;;-143.84;74.41;45189.97;5129772;27;20440;-70
2022/12/18 06:45:37;;;;;;;25.97;16.47;;;;;;;-143.84;74.53;45216.63;5130029;27;20856;-70
2022/12/18 06:48:04;;;;;;;26.80;16.60;;;;;;;-143.84;74.75;45209.03;5129725;27;20431;-70
2022/12/18 06:50:33;;;;;;;31.07;18.67;;;;;;;-143.84;74.55;45218.53;5129983;27;20436;-70
2022/12/18 06:53:01;;;;;;;27.40;16.50;;;;;;;-143.84;74.51;45201.41;5129076;27;20448;-71
2022/12/18 06:55:28;;;;;;;30.10;17.93;;;;;;;-143.84;74.92;45201.41;5129605;27;20598;-71
2022/12/18 06:57:55;;;;;;;25.73;15.87;;;;;;;-143.84;75.03;45203.31;5129855;28;20439;-70
2022/12/18 07:00:22;;;;;;;27.50;17.37;;;;;;;-143.84;75.17;45191.88;5130533;28;20426;-70
2022/12/18 07:02:49;;;;;;;27.07;18.03;;;;;;;-143.84;75.23;45210.94;5129693;28;20491;-70
2022/12/18 07:05:16;;;;;;;35.20;18.13;;;;;;;-143.84;75.38;45191.88;5130012;28;20434;-70
2022/12/18 07:07:45;;;;;;;28.00;16.80;;;;;;;-143.84;75.75;45201.41;5129376;28;20452;-70
2022/12/18 07:10:12;;;;;;;27.50;17.43;;;;;;;-143.84;75.09;45193.78;5129819;28;20468;-70
2022/12/18 07:12:39;;;;;;;35.00;19.10;;;;;;;-143.84;75.56;45214.72;5129668;28;20472;-70
2022/12/18 07:15:08;;;;;;;29.90;18.60;;;;;;;-143.84;75.99;45210.94;5130056;28;20479;-70
2022/12/18 07:17:35;;;;;;;29.03;19.50;;;;;;;-143.84;76.33;45209.03;5129839;28;20485;-70
2022/12/18 07:20:02;;;;;;;30.63;18.90;;;;;;;-143.84;76.55;45199.50;5129836;28;20442;-71
2022/12/18 07:22:29;;;;;;;35.03;19.43;;;;;;;-143.84;76.04;45193.78;5129150;28;20455;-71
2022/12/18 07:24:58;;;;;;;28.93;17.83;;;;;;;-143.84;76.63;45186.16;5129223;28;20942;-70
2022/12/18 07:27:25;;;;;;;32.10;19.47;;;;;;;-143.84;76.11;45220.44;5129694;28;20447;-71
2022/12/18 07:29:52;;;;;;;27.43;17.73;;;;;;;-143.84;76.32;45229.97;5129509;28;20447;-71
2022/12/18 07:32:19;;;;;;;31.93;19.80;;;;;;;-143.84;76.21;45216.63;5129856;28;20428;-70
2022/12/18 07:34:47;;;;;;;29.23;18.97;;;;;;;-143.84;76.57;45172.84;5129378;28;21147;-70
2022/12/18 07:37:14;;;;;;;35.50;19.17;;;;;;;-143.84;76.31;45209.03;5131621;27;20440;-70
2022/12/18 07:39:41;;;;;;;30.00;19.70;;;;;;;-143.84;76.52;45207.13;5133076;27;20444;-70
2022/12/18 07:44:54;;;;;;;35.03;20.07;;;;;;;-143.84;77.19;45209.03;5132573;27;20415;-70
2022/12/18 07:47:21;;;;;;;37.27;21.23;;;;;;;-143.84;77.00;45205.22;5132264;27;20431;-70
2022/12/18 07:49:48;;;;;;;33.37;18.73;;;;;;;-143.84;76.86;45224.25;5132577;27;20854;-71
2022/12/18 07:52:15;;;;;;;34.67;20.10;;;;;;;-143.84;77.15;45220.44;5131965;27;20443;-70
2022/12/18 07:54:43;;;;;;;30.77;18.40;;;;;;;-143.84;77.34;45197.59;5133150;27;20844;-70
2022/12/18 07:57:11;;;;;;;34.87;19.60;;;;;;;-143.84;77.26;45216.63;5132362;27;20808;-70
2022/12/18 07:59:38;;;;;;;28.73;17.80;;;;;;;-143.84;77.57;45193.78;5131861;27;20507;-70
2022/12/18 08:02:05;;;;;;;32.73;19.50;;;;;;;-143.84;77.49;45207.13;5132537;27;20500;-70
2022/12/18 08:04:32;;;;;;;32.23;19.07;;;;;;;-143.84;78.39;45199.50;5132809;27;20844;-70
2022/12/18 08:07:00;;;;;;;30.23;19.10;;;;;;;-143.84;77.94;45193.78;5131631;27;20489;-70
2022/12/18 08:09:27;;;;;;;38.13;19.97;;;;;;;-143.84;78.34;45193.78;5132190;27;20445;-70
2022/12/18 08:11:54;;;;;;;31.20;19.10;;;;;;;-143.84;78.06;45191.88;5132402;27;20971;-70
2022/12/18 08:14:22;;;;;;;34.60;20.13;;;;;;;-143.84;77.78;45189.97;5132836;27;20528;-70
2022/12/18 08:16:49;;;;;;;36.20;18.63;;;;;;;-143.84;77.67;45188.06;5132845;27;20440;-70
2022/12/18 08:19:16;;;;;;;35.60;20.67;;;;;;;-143.84;78.40;45153.81;5132484;27;20504;-70
2022/12/18 08:21:44;;;;;;;32.13;19.77;;;;;;;-143.84;77.55;45195.69;5131842;27;20487;-70
2022/12/18 08:24:11;;;;;;;29.40;18.80;;;;;;;-143.84;78.14;45199.50;5132863;27;20432;-70
2022/12/18 08:26:39;;;;;;;31.03;19.30;;;;;;;-143.84;77.63;45197.59;5132996;27;20440;-70
2022/12/18 08:29:06;;;;;;;34.23;21.70;;;;;;;-143.84;77.76;45189.97;5132717;27;20489;-70
2022/12/18 08:31:34;;;;;;;32.50;20.50;;;;;;;-143.84;77.41;45174.75;5132425;27;20443;-69
2022/12/18 08:34:01;;;;;;;37.67;22.20;;;;;;;-143.84;76.96;45205.22;5132692;27;20846;-70
2022/12/18 08:36:29;;;;;;;36.33;20.47;;;;;;;-143.84;77.23;45197.59;5131806;27;20528;-70
2022/12/18 08:38:56;;;;;;;40.10;19.97;;;;;;;-143.84;77.29;45210.94;5132198;27;20432;-70
2022/12/18 08:41:23;;;;;;;33.97;19.20;;;;;;;-143.84;77.09;45191.88;5132224;27;20467;-71
2022/12/18 08:46:38;;;;;;;32.00;19.00;;;;;;;-143.84;77.54;45228.06;5135908;27;20988;-71
2022/12/18 08:49:06;;;;;;;28.67;18.10;;;;;;;-143.84;77.06;45176.66;5132122;27;20458;-71
2022/12/18 08:51:33;;;;;;;30.13;19.10;;;;;;;-143.84;77.06;45197.59;5131638;27;20441;-71
2022/12/18 08:54:00;;;;;;;34.00;20.33;;;;;;;-143.84;77.14;45201.41;5131948;27;20433;-71
2022/12/18 08:56:27;;;;;;;31.40;19.00;;;;;;;-143.84;77.83;45201.41;5131829;27;20474;-71
2022/12/18 08:58:55;;;;;;;32.53;19.00;;;;;;;-143.84;77.66;45201.41;5131857;27;20431;-70
2022/12/18 09:01:24;;;;;;;32.87;18.60;;;;;;;-143.84;77.24;45195.69;5131949;27;20850;-71
2022/12/18 09:03:53;;;;;;;32.23;19.90;;;;;;;-143.84;77.83;45180.47;5131796;27;20472;-71
2022/12/18 09:06:21;;;;;;;35.77;18.93;;;;;;;-143.84;77.94;45186.16;5131158;27;20440;-70
2022/12/18 09:08:48;;;;;;;28.87;19.20;;;;;;;-143.84;77.22;45228.06;5131718;27;20801;-71
2022/12/18 09:11:21;;;;;;;39.83;20.13;;;;;;;-143.84;77.13;45205.22;5131574;27;20431;-71
2022/12/18 09:13:49;;;;;;;32.17;19.27;;;;;;;-143.84;77.41;45199.50;5131440;27;20480;-70
2022/12/18 09:16:16;;;;;;;33.00;18.57;;;;;;;-143.84;77.50;45195.69;5131545;27;20531;-71
2022/12/18 09:18:43;;;;;;;34.80;21.30;;;;;;;-143.84;78.57;45209.03;5131332;27;20431;-71
2022/12/18 09:21:14;;;;;;;31.40;18.30;;;;;;;-143.84;78.31;45222.34;5130921;27;20439;-71
2022/12/18 09:23:41;;;;;;;35.23;20.87;;;;;;;-143.84;78.23;45186.16;5130854;27;20974;-72
2022/12/18 09:26:09;;;;;;;35.03;20.17;;;;;;;-143.84;78.58;45193.78;5131360;27;20491;-72
2022/12/18 09:28:36;;;;;;;38.83;19.77;;;;;;;-143.84;78.51;45193.78;5131012;27;20440;-72
2022/12/18 09:31:07;;;;;;;30.40;19.03;;;;;;;-143.84;78.68;45209.03;5130980;27;20454;-72
2022/12/18 09:33:35;;;;;;;34.80;19.80;;;;;;;-143.84;78.67;45193.78;5130881;27;20520;-72
2022/12/18 09:36:03;;;;;;;32.50;18.13;;;;;;;-143.84;78.28;45205.22;5130633;27;20467;-72
2022/12/18 09:38:32;;;;;;;39.80;20.77;;;;;;;-143.84;78.00;45186.16;5131055;27;20424;-72
2022/12/18 09:41:04;;;;;;;36.07;20.97;;;;;;;-143.84;78.57;45176.66;5130911;27;20430;-72
2022/12/18 09:43:37;;;;;;;33.97;19.87;;;;;;;-143.84;78.40;45188.06;5130852;27;20442;-72
2022/12/18 09:46:07;;;;;;;34.13;20.70;;;;;;;-143.84;78.58;45189.97;5130887;27;20430;-72
2022/12/18 09:48:39;;;;;;;31.63;19.47;;;;;;;-143.84;78.37;45195.69;5130611;27;20455;-72
2022/12/18 09:51:14;;;;;;;35.80;19.30;;;;;;;-143.84;77.89;45199.50;5127837;27;20825;-71
2022/12/18 09:53:48;;;;;;;36.07;20.53;;;;;;;-143.84;78.08;45203.31;5130437;27;20437;-71
2022/12/18 09:56:22;;;;;;;33.47;19.70;;;;;;;-143.84;77.86;45189.97;5130341;27;20473;-71
2022/12/18 09:58:58;;;;;;;33.53;19.47;;;;;;;-143.84;78.74;45189.97;5130018;27;20517;-72
2022/12/18 10:01:26;;;;;;;30.47;19.07;;;;;;;-143.84;78.72;45212.84;5128193;27;20441;-71
2022/12/18 10:03:54;;;;;;;30.13;19.60;;;;;;;-143.84;79.55;45209.03;5130428;27;20983;-71
2022/12/18 10:06:28;;;;;;;28.37;18.30;;;;;;;-143.84;79.38;45169.03;5130383;27;20446;-71
2022/12/18 10:09:04;;;;;;;38.83;21.83;;;;;;;-143.84;79.15;45186.16;5130700;27;20442;-71
2022/12/18 10:11:40;;;;;;;36.57;21.63;;;;;;;-143.84;79.36;45184.25;5130285;27;20530;-71
2022/12/18 10:14:15;;;;;;;35.20;21.10;;;;;;;-143.84;78.51;45201.41;5130472;27;20759;-73
2022/12/18 10:16:55;;;;;;;38.50;21.87;;;;;;;-143.84;79.11;45201.41;5130274;27;20995;-73
2022/12/18 10:19:34;;;;;;;44.97;22.00;;;;;;;-143.84;78.32;45199.50;5130534;27;20965;-72
2022/12/18 10:22:11;;;;;;;37.57;22.53;;;;;;;-143.84;77.84;45186.16;5129284;27;20456;-73
2022/12/18 10:24:47;;;;;;;41.10;21.70;;;;;;;-143.84;78.15;45199.50;5130027;27;20815;-73
2022/12/18 10:27:17;;;;;;;34.80;20.73;;;;;;;-143.84;78.48;45169.03;5127882;27;21320;-72
2022/12/18 10:29:46;;;;;;;36.73;20.43;;;;;;;-143.84;78.54;45178.56;5109541;28;20437;-72
2022/12/18 10:32:16;;;;;;;41.87;23.73;;;;;;;-143.84;78.00;45176.66;5126905;27;20443;-72
2022/12/18 10:34:46;;;;;;;46.03;23.77;;;;;;;-143.84;78.03;45193.78;5129848;27;20467;-72
2022/12/18 10:37:18;;;;;;;37.43;21.87;;;;;;;-143.84;78.17;45209.03;5129111;27;20894;-72
2022/12/18 10:39:47;;;;;;;37.50;21.27;;;;;;;-143.84;77.60;45199.50;5130184;27;20513;-72
2022/12/18 10:42:19;;;;;;;37.83;22.10;;;;;;;-143.84;77.88;45212.84;5130420;27;20433;-72
2022/12/18 10:44:47;;;;;;;38.97;22.87;;;;;;;-143.84;78.29;45193.78;5130100;27;20448;-71
2022/12/18 10:47:17;;;;;;;38.00;22.00;;;;;;;-143.84;78.11;45197.59;5129580;27;20550;-71
2022/12/18 10:49:51;;;;;;;37.60;22.37;;;;;;;-143.84;78.02;45169.03;5128911;27;20822;-71
2022/12/18 10:52:21;;;;;;;38.70;22.97;;;;;;;-143.84;78.18;45174.75;5129532;27;20512;-71
2022/12/18 10:54:53;;;;;;;41.00;24.03;;;;;;;-143.84;77.69;45178.56;5128861;27;20447;-71
2022/12/18 10:57:36;;;;;;;41.13;23.70;;;;;;;-143.84;77.97;45201.41;5130071;27;20536;-71
2022/12/18 11:00:24;;;;;;;42.53;23.97;;;;;;;-143.84;78.16;45167.13;5127270;28;21024;-71
2022/12/18 11:02:51;;;;;;;39.50;25.27;;;;;;;-143.84;78.82;45161.41;5129492;28;20459;-73
2022/12/18 11:05:28;;;;;;;39.73;24.70;;;;;;;-143.84;78.19;45170.94;5129174;28;20472;-72
2022/12/18 11:07:56;;;;;;;44.53;24.93;;;;;;;-143.84;77.16;45203.31;5129286;28;20436;-71
2022/12/18 11:10:31;;;;;;;42.90;25.87;;;;;;;-143.84;76.55;45178.56;5130711;27;20445;-71
2022/12/18 11:13:14;;;;;;;48.80;25.23;;;;;;;-143.84;77.26;45174.75;5133881;27;20842;-71
2022/12/18 11:15:42;;;;;;;45.83;24.50;;;;;;;-143.84;77.26;45195.69;5133918;27;21000;-72
2022/12/18 11:18:19;;;;;;;41.83;26.00;;;;;;;-143.84;76.96;45191.88;5133758;27;20468;-72
2022/12/18 11:20:52;;;;;;;47.13;26.07;;;;;;;-143.84;77.32;45172.84;5133244;27;20832;-73
2022/12/18 11:23:22;;;;;;;41.40;25.33;;;;;;;-143.84;77.55;45178.56;5133207;27;20449;-72
2022/12/18 11:25:56;;;;;;;45.57;26.23;;;;;;;-143.84;78.12;45191.88;5133782;27;20448;-72